Time;durP1;ratioP1;P1;durP2;ratioP2;P2;SDS_P1;SDS_P2;PMS_P1;PMS_P2;Temp;Humidity;BMP_temperature;BMP_pressure;BME280_temperature;BME280_humidity;BME280_pressure;Samples;Min_cycle;Max_cycle;Signal;HPM_P1;HPM_P2
2023/03/27 00:01:16;;;;;;;0.60;0.60;;;;;2.80;92994.00;;;;7395664;19;20140;-76
2023/03/27 00:03:52;;;;;;;6.37;0.63;;;;;2.60;92994.00;;;;7396830;19;20184;-76
2023/03/27 00:06:20;;;;;;;0.47;0.47;;;;;2.30;92997.00;;;;7396509;19;20125;-74
2023/03/27 00:08:51;;;;;;;1.73;0.70;;;;;2.20;93010.00;;;;7399439;19;20600;-75
2023/03/27 00:11:25;;;;;;;0.83;0.60;;;;;2.20;93011.00;;;;7404879;19;20136;-77
2023/03/27 00:14:00;;;;;;;1.40;0.70;;;;;2.20;93009.00;;;;7403420;19;20144;-75
2023/03/27 00:16:34;;;;;;;9.50;0.87;;;;;2.20;93011.00;;;;7404277;19;20184;-76
2023/03/27 00:19:05;;;;;;;0.80;0.80;;;;;2.30;93027.00;;;;7403127;19;20224;-77
2023/03/27 00:21:39;;;;;;;1.10;1.00;;;;;2.30;93038.00;;;;7401072;19;20454;-77
2023/03/27 00:24:10;;;;;;;0.80;0.73;;;;;2.20;93037.00;;;;7401115;19;20148;-75
2023/03/27 00:26:39;;;;;;;0.70;0.70;;;;;2.40;93039.00;;;;7404630;19;20227;-77
2023/03/27 00:29:17;;;;;;;3.83;1.30;;;;;2.30;93041.00;;;;7403726;19;20136;-76
2023/03/27 00:31:45;;;;;;;1.90;1.40;;;;;2.40;93045.00;;;;7402678;19;20200;-75
2023/03/27 00:34:22;;;;;;;2.33;1.67;;;;;2.30;93049.00;;;;7403686;19;20141;-75
2023/03/27 00:36:58;;;;;;;2.30;2.10;;;;;2.50;93052.00;;;;7404198;19;20156;-75
2023/03/27 00:39:33;;;;;;;3.93;2.33;;;;;2.50;93056.00;;;;7402854;19;20129;-76
2023/03/27 00:42:02;;;;;;;2.47;2.27;;;;;2.50;93066.00;;;;7402500;19;20133;-74
2023/03/27 00:44:36;;;;;;;3.60;2.60;;;;;2.40;93057.00;;;;7402839;19;20139;-78
2023/03/27 00:47:09;;;;;;;3.97;2.30;;;;;2.70;93061.00;;;;7403381;19;20134;-77
2023/03/27 00:49:45;;;;;;;2.60;2.20;;;;;2.50;93067.00;;;;7402176;19;20227;-74
2023/03/27 00:52:20;;;;;;;5.63;2.50;;;;;2.40;93079.00;;;;7401730;19;20168;-76
2023/03/27 00:54:59;;;;;;;2.80;2.40;;;;;2.30;93080.00;;;;7401746;19;20606;-76
2023/03/27 00:57:33;;;;;;;5.30;2.73;;;;;2.40;93082.00;;;;7401595;19;20133;-77
2023/03/27 01:00:13;;;;;;;4.83;3.40;;;;;2.50;93088.00;;;;7402533;19;20125;-74
2023/03/27 01:02:41;;;;;;;4.77;4.07;;;;;2.30;93089.00;;;;7393746;19;20212;-83
2023/03/27 01:05:17;;;;;;;8.30;4.30;;;;;2.20;93083.00;;;;7401556;19;20159;-82
2023/03/27 01:07:48;;;;;;;6.93;3.33;;;;;2.00;93091.00;;;;7404084;19;20148;-86
2023/03/27 01:11:00;;;;;;;5.50;3.80;;;;;2.00;93094.00;;;;7402420;19;20220;-84
2023/03/27 01:13:40;;;;;;;6.27;4.20;;;;;2.00;93098.00;;;;7401925;19;20133;-84
2023/03/27 01:16:35;;;;;;;5.53;4.10;;;;;1.90;93107.00;;;;7400877;19;20611;-82
2023/03/27 01:19:30;;;;;;;5.97;3.53;;;;;1.70;93105.00;;;;7400189;19;20151;-82
2023/03/27 01:22:17;;;;;;;7.07;4.67;;;;;1.90;93115.00;;;;7398630;19;20148;-80
2023/03/27 01:24:55;;;;;;;5.67;4.23;;;;;1.90;93124.00;;;;7401196;19;20163;-81
2023/03/27 01:28:09;;;;;;;11.97;5.83;;;;;1.70;93124.00;;;;7400046;19;20222;-80
2023/03/27 01:31:08;;;;;;;12.97;6.83;;;;;1.80;93119.00;;;;7399854;19;20153;-81
2023/03/27 01:33:48;;;;;;;14.97;7.20;;;;;1.70;93128.00;;;;7400165;19;20526;-81
2023/03/27 01:36:31;;;;;;;131.43;11.43;;;;;1.90;93132.00;;;;7400655;19;20133;-80
2023/03/27 01:39:04;;;;;;;318.20;18.97;;;;;1.90;93138.00;;;;7399072;19;20135;-80
2023/03/27 01:42:05;;;;;;;448.83;24.43;;;;;1.80;93145.00;;;;7399928;19;20604;-82
2023/03/27 01:44:45;;;;;;;187.07;15.17;;;;;1.70;93151.00;;;;7399114;19;20169;-83
2023/03/27 01:47:35;;;;;;;247.00;18.13;;;;;1.70;93153.00;;;;7399774;19;20490;-82
2023/03/27 01:50:05;;;;;;;9.23;6.17;;;;;1.60;93154.00;;;;7398812;19;20144;-81
2023/03/27 01:52:44;;;;;;;12.20;7.37;;;;;1.50;93175.00;;;;7399762;19;20512;-83
2023/03/27 01:55:17;;;;;;;17.53;7.30;;;;;1.50;93172.00;;;;7398967;19;20159;-83
2023/03/27 01:57:59;;;;;;;13.50;7.90;;;;;1.30;93181.00;;;;7399195;19;20497;-81
2023/03/27 02:00:37;;;;;;;13.17;6.90;;;;;1.30;93165.00;;;;7398155;19;20599;-84
2023/03/27 02:03:54;;;;;;;14.23;6.57;;;;;1.00;93189.00;;;;7396323;19;20741;-81
2023/03/27 02:06:27;;;;;;;14.07;7.17;;;;;0.90;93190.00;;;;7398909;19;20639;-82
2023/03/27 02:09:21;;;;;;;11.33;6.13;;;;;0.90;93207.00;;;;7398873;19;20611;-83
2023/03/27 02:11:55;;;;;;;9.87;5.83;;;;;0.70;93206.00;;;;7399854;19;20137;-82
2023/03/27 02:14:42;;;;;;;12.37;5.83;;;;;0.60;93208.00;;;;7398327;19;20149;-84
2023/03/27 02:17:18;;;;;;;11.40;5.10;;;;;0.40;93214.00;;;;7398335;19;20725;-83
2023/03/27 02:20:13;;;;;;;12.23;5.77;;;;;0.40;93233.00;;;;7399516;19;20138;-83
2023/03/27 02:22:47;;;;;;;17.10;10.67;;;;;0.40;93231.00;;;;7398517;19;20166;-83
2023/03/27 02:25:26;;;;;;;14.40;6.37;;;;;0.30;93235.00;;;;7398191;19;20180;-83
2023/03/27 02:28:30;;;;;;;14.50;6.80;;;;;0.30;93249.00;;;;7397649;19;20121;-84
2023/03/27 02:31:30;;;;;;;19.17;7.30;;;;;0.10;93245.00;;;;7397622;19;20603;-81
2023/03/27 02:34:27;;;;;;;16.37;7.63;;;;;0.10;93254.00;;;;7399199;19;20529;-81
2023/03/27 02:37:27;;;;;;;28.10;7.97;;;;;0.10;93270.00;;;;7397712;19;20145;-78
2023/03/27 02:40:27;;;;;;;18.23;8.37;;;;;0.20;93281.00;;;;7398073;19;20163;-79
2023/03/27 02:43:07;;;;;;;24.57;8.10;;;;;0.20;93277.00;;;;7398329;19;20145;-78
2023/03/27 02:46:04;;;;;;;17.00;9.10;;;;;0.20;93286.00;;;;7397722;19;20212;-77
2023/03/27 02:48:44;;;;;;;25.47;8.67;;;;;0.10;93286.00;;;;7396924;19;20220;-77
2023/03/27 02:51:27;;;;;;;15.03;7.63;;;;;0.10;93297.00;;;;7397959;19;20140;-78
2023/03/27 02:54:00;;;;;;;18.23;5.63;;;;;0.10;93298.00;;;;7395545;19;20144;-77
2023/03/27 02:56:38;;;;;;;22.47;6.63;;;;;0.10;93292.00;;;;7396596;19;20160;-77
2023/03/27 02:59:21;;;;;;;20.73;6.73;;;;;0.00;93300.00;;;;7396543;19;20160;-77
2023/03/27 03:01:49;;;;;;;23.43;6.33;;;;;0.10;93303.00;;;;7397850;19;20151;-77
2023/03/27 03:04:40;;;;;;;17.73;6.03;;;;;0.00;93305.00;;;;7398433;19;20128;-77
2023/03/27 03:07:10;;;;;;;16.77;5.83;;;;;-0.10;93311.00;;;;7396400;19;20176;-77
2023/03/27 03:09:44;;;;;;;14.40;5.33;;;;;0.00;93317.00;;;;7396890;19;20148;-77
2023/03/27 03:12:18;;;;;;;18.70;5.87;;;;;0.00;93314.00;;;;7395759;19;20170;-77
2023/03/27 03:14:46;;;;;;;19.50;6.30;;;;;0.00;93314.00;;;;7398101;19;20131;-78
2023/03/27 03:17:20;;;;;;;14.13;4.87;;;;;0.00;93334.00;;;;7396859;19;20179;-77
2023/03/27 03:19:48;;;;;;;15.83;6.23;;;;;-0.10;93336.00;;;;7398078;19;20520;-77
2023/03/27 03:22:16;;;;;;;15.43;6.17;;;;;0.00;93345.00;;;;7397217;19;20137;-77
2023/03/27 03:24:49;;;;;;;16.17;5.70;;;;;0.00;93351.00;;;;7396316;19;20121;-77
2023/03/27 03:27:23;;;;;;;21.63;5.70;;;;;-0.10;93355.00;;;;7396252;19;20141;-77
2023/03/27 03:29:57;;;;;;;25.80;6.47;;;;;-0.10;93358.00;;;;7395566;19;20152;-77
2023/03/27 03:32:32;;;;;;;12.47;5.73;;;;;-0.20;93358.00;;;;7395672;19;20129;-77
2023/03/27 03:35:08;;;;;;;14.10;4.47;;;;;-0.30;93361.00;;;;7395971;19;20490;-77
2023/03/27 03:37:37;;;;;;;13.83;5.17;;;;;-0.20;93364.00;;;;7396219;19;20501;-77
2023/03/27 03:40:12;;;;;;;12.60;4.33;;;;;-0.20;93379.00;;;;7396130;19;20497;-77
2023/03/27 03:42:47;;;;;;;12.30;4.20;;;;;-0.40;93379.00;;;;7396299;19;20489;-76
2023/03/27 03:45:22;;;;;;;15.83;3.70;;;;;-0.40;93388.00;;;;7405229;19;20188;-79
2023/03/27 03:47:50;;;;;;;10.63;3.27;;;;;-0.60;93391.00;;;;7404891;19;20635;-78
2023/03/27 03:50:24;;;;;;;9.47;2.90;;;;;-0.60;93398.00;;;;7402350;19;20148;-79
2023/03/27 03:52:58;;;;;;;11.47;3.23;;;;;-0.80;93408.00;;;;7402018;19;20125;-79
2023/03/27 03:55:34;;;;;;;10.30;2.83;;;;;-0.60;93419.00;;;;7403106;19;20149;-79
2023/03/27 03:58:02;;;;;;;9.73;3.23;;;;;-0.60;93420.00;;;;7403098;19;20141;-79
2023/03/27 04:00:37;;;;;;;12.77;3.00;;;;;-0.70;93428.00;;;;7402747;19;20165;-78
2023/03/27 04:03:07;;;;;;;23.93;2.80;;;;;-0.90;93444.00;;;;7400652;19;20283;-78
2023/03/27 04:05:44;;;;;;;8.87;2.70;;;;;-0.90;93453.00;;;;7402741;19;20123;-77
2023/03/27 04:08:12;;;;;;;10.77;3.00;;;;;-1.10;93450.00;;;;7402528;19;20498;-77
2023/03/27 04:10:48;;;;;;;13.13;2.80;;;;;-1.00;93461.00;;;;7403559;19;20132;-79
2023/03/27 04:13:15;;;;;;;10.70;2.77;;;;;-1.10;93472.00;;;;7402233;19;20145;-79
2023/03/27 04:15:50;;;;;;;8.73;2.83;;;;;-1.10;93464.00;;;;7403979;19;20473;-76
2023/03/27 04:18:23;;;;;;;10.37;2.70;;;;;-1.30;93477.00;;;;7403520;19;20157;-78
2023/03/27 04:21:01;;;;;;;8.27;2.17;;;;;-1.40;93481.00;;;;7402305;19;20148;-78
2023/03/27 04:23:34;;;;;;;5.20;2.30;;;;;-1.20;93485.00;;;;7403903;19;20145;-77
2023/03/27 04:26:10;;;;;;;8.67;2.80;;;;;-1.30;93495.00;;;;7403319;19;20144;-78
2023/03/27 04:28:39;;;;;;;10.80;2.60;;;;;-1.40;93480.00;;;;7402438;19;20595;-77
2023/03/27 04:31:13;;;;;;;7.27;2.40;;;;;-1.50;93492.00;;;;7401607;19;20220;-76
2023/03/27 04:33:45;;;;;;;13.70;3.50;;;;;-1.50;93513.00;;;;7400136;19;20180;-78
2023/03/27 04:36:21;;;;;;;11.47;3.03;;;;;-1.50;93509.00;;;;7402343;19;20621;-77
2023/03/27 04:38:49;;;;;;;12.23;3.60;;;;;-1.60;93507.00;;;;7401526;19;20153;-76
2023/03/27 04:41:22;;;;;;;17.90;2.93;;;;;-1.50;93523.00;;;;7403349;19;20591;-77
2023/03/27 04:43:50;;;;;;;11.07;2.70;;;;;-1.80;93526.00;;;;7400488;19;20172;-76
2023/03/27 04:46:24;;;;;;;9.87;3.03;;;;;-1.80;93529.00;;;;7401509;19;20614;-76
2023/03/27 04:48:58;;;;;;;13.10;2.13;;;;;-1.90;93536.00;;;;7401333;19;20176;-76
2023/03/27 04:51:26;;;;;;;11.93;2.37;;;;;-2.00;93549.00;;;;7396848;19;20152;-76
2023/03/27 04:54:04;;;;;;;11.70;2.20;;;;;-2.00;93556.00;;;;7397090;19;20472;-76
2023/03/27 04:56:35;;;;;;;16.97;2.00;;;;;-2.00;93563.00;;;;7395852;19;20140;-77
2023/03/27 04:59:09;;;;;;;8.23;2.10;;;;;-2.00;93577.00;;;;7397427;19;20600;-74
2023/03/27 05:01:44;;;;;;;13.00;2.17;;;;;-2.00;93565.00;;;;7395674;19;20512;-74
2023/03/27 05:04:18;;;;;;;10.50;2.70;;;;;-2.00;93569.00;;;;7395487;19;20179;-74
2023/03/27 05:06:55;;;;;;;12.83;2.30;;;;;-2.00;93585.00;;;;7397648;19;20619;-74
2023/03/27 05:09:23;;;;;;;15.53;2.83;;;;;-1.90;93580.00;;;;7398119;19;20149;-76
2023/03/27 05:12:01;;;;;;;7.50;1.97;;;;;-1.80;93588.00;;;;7395276;19;20136;-75
2023/03/27 05:14:30;;;;;;;12.57;3.53;;;;;-1.90;93587.00;;;;7395944;19;20630;-76
2023/03/27 05:17:08;;;;;;;18.13;3.57;;;;;-1.80;93595.00;;;;7396660;19;20121;-76
2023/03/27 05:19:43;;;;;;;8.17;2.40;;;;;-1.80;93612.00;;;;7401087;19;20171;-75
2023/03/27 05:22:17;;;;;;;17.03;4.27;;;;;-1.70;93611.00;;;;7398853;19;20155;-75
2023/03/27 05:24:52;;;;;;;10.83;2.50;;;;;-1.80;93622.00;;;;7399912;19;20461;-75
2023/03/27 05:27:26;;;;;;;8.97;3.50;;;;;-1.70;93631.00;;;;7400952;19;20140;-75
2023/03/27 05:30:00;;;;;;;11.70;2.63;;;;;-1.60;93634.00;;;;7400004;19;20165;-75
2023/03/27 05:32:34;;;;;;;11.97;3.33;;;;;-1.80;93655.00;;;;7399182;19;20161;-75
2023/03/27 05:35:10;;;;;;;7.83;1.97;;;;;-1.70;93650.00;;;;7399812;19;20182;-75
2023/03/27 05:37:48;;;;;;;9.60;2.53;;;;;-1.80;93665.00;;;;7400578;19;20155;-75
2023/03/27 05:40:24;;;;;;;11.60;2.40;;;;;-1.70;93666.00;;;;7399696;19;20626;-75
2023/03/27 05:42:58;;;;;;;7.53;2.20;;;;;-1.70;93670.00;;;;7399469;19;20152;-75
2023/03/27 05:45:26;;;;;;;8.47;2.47;;;;;-1.60;93669.00;;;;7400493;19;20165;-75
2023/03/27 05:48:02;;;;;;;14.67;2.63;;;;;-1.50;93675.00;;;;7398705;19;20146;-75
2023/03/27 05:50:34;;;;;;;14.00;2.30;;;;;-1.50;93693.00;;;;7399769;19;20137;-75
2023/03/27 05:53:10;;;;;;;8.53;2.63;;;;;-1.60;93683.00;;;;7400651;19;20200;-75
2023/03/27 05:55:38;;;;;;;15.17;3.00;;;;;-1.70;93695.00;;;;7400467;19;20601;-74
2023/03/27 05:58:19;;;;;;;14.57;2.97;;;;;-1.70;93696.00;;;;7399887;19;20140;-75
2023/03/27 06:00:53;;;;;;;8.73;2.70;;;;;-1.80;93717.00;;;;7399661;19;20156;-74
2023/03/27 06:03:34;;;;;;;9.43;2.73;;;;;-1.80;93717.00;;;;7397083;19;20176;-75
2023/03/27 06:06:10;;;;;;;12.03;2.40;;;;;-1.80;93725.00;;;;7398936;19;20152;-75
2023/03/27 06:08:45;;;;;;;13.97;2.53;;;;;-1.80;93726.00;;;;7400207;19;20129;-73
2023/03/27 06:11:14;;;;;;;14.13;2.47;;;;;-1.70;93727.00;;;;7399126;19;20141;-73
2023/03/27 06:13:47;;;;;;;7.50;2.50;;;;;-1.80;93724.00;;;;7398730;19;20484;-76
2023/03/27 06:16:22;;;;;;;12.77;3.03;;;;;-1.90;93741.00;;;;7399441;19;20164;-73
2023/03/27 06:18:57;;;;;;;7.63;2.57;;;;;-1.80;93741.00;;;;7399549;19;20140;-73
2023/03/27 06:21:31;;;;;;;10.80;3.07;;;;;-1.80;93740.00;;;;7398307;19;20179;-73
2023/03/27 06:24:07;;;;;;;19.53;2.93;;;;;-1.80;93756.00;;;;7398182;19;20127;-73
2023/03/27 06:26:41;;;;;;;10.27;2.80;;;;;-1.60;93750.00;;;;7398042;19;20168;-74
2023/03/27 06:29:15;;;;;;;10.50;2.90;;;;;-1.40;93776.00;;;;7400015;19;20157;-74
2023/03/27 06:31:50;;;;;;;17.57;3.20;;;;;-1.40;93769.00;;;;7399922;19;20148;-74
2023/03/27 06:34:17;;;;;;;18.07;2.47;;;;;-1.30;93789.00;;;;7397040;19;20144;-75
2023/03/27 06:36:52;;;;;;;7.93;2.60;;;;;-1.50;93787.00;;;;7398317;19;20144;-74
2023/03/27 06:39:26;;;;;;;9.93;2.57;;;;;-1.50;93787.00;;;;7398222;19;20140;-73
2023/03/27 06:41:57;;;;;;;6.80;2.63;;;;;-1.30;93791.00;;;;7397377;19;20163;-73
2023/03/27 06:44:31;;;;;;;16.17;3.00;;;;;-1.30;93808.00;;;;7398089;19;20207;-74
2023/03/27 06:47:01;;;;;;;11.23;2.53;;;;;-1.40;93815.00;;;;7400002;19;20141;-76
2023/03/27 06:49:35;;;;;;;10.60;2.50;;;;;-1.30;93802.00;;;;7398367;19;20140;-73
2023/03/27 06:52:09;;;;;;;11.33;2.50;;;;;-0.70;93797.00;;;;7398624;19;20480;-74
2023/03/27 06:54:43;;;;;;;9.40;2.13;;;;;-0.70;93827.00;;;;7395792;19;20156;-75
2023/03/27 06:57:12;;;;;;;7.10;2.40;;;;;-0.60;93827.00;;;;7397645;19;20141;-75
2023/03/27 06:59:47;;;;;;;10.80;2.30;;;;;-0.70;93823.00;;;;7396248;19;20141;-76
2023/03/27 07:02:28;;;;;;;10.30;2.30;;;;;-0.50;93827.00;;;;7396070;19;20191;-75
2023/03/27 07:05:09;;;;;;;5.90;1.93;;;;;-0.40;93837.00;;;;7397837;19;20158;-77
2023/03/27 07:07:43;;;;;;;9.47;2.67;;;;;0.50;93838.00;;;;7397847;19;20476;-75
2023/03/27 07:10:18;;;;;;;7.93;2.00;;;;;0.70;93841.00;;;;7396675;19;20145;-75
2023/03/27 07:12:46;;;;;;;11.93;2.80;;;;;0.60;93839.00;;;;7396684;19;20140;-77
2023/03/27 07:15:22;;;;;;;6.33;2.03;;;;;1.10;93842.00;;;;7392289;19;20143;-76
2023/03/27 07:17:58;;;;;;;13.37;2.40;;;;;1.20;93850.00;;;;7397786;19;20616;-79
2023/03/27 07:20:34;;;;;;;6.13;2.50;;;;;0.60;93860.00;;;;7406816;19;20471;-80
2023/03/27 07:23:08;;;;;;;7.03;2.20;;;;;0.50;93861.00;;;;7406455;19;20158;-78
2023/03/27 07:25:42;;;;;;;10.53;2.50;;;;;0.20;93869.00;;;;7404755;19;20148;-79
2023/03/27 07:28:17;;;;;;;7.33;2.10;;;;;-0.20;93886.00;;;;7406616;19;20479;-80
2023/03/27 07:30:50;;;;;;;9.03;1.83;;;;;-0.20;93882.00;;;;7404251;19;20144;-79
2023/03/27 07:33:18;;;;;;;7.87;2.50;;;;;0.10;93873.00;;;;7404512;19;20604;-79
2023/03/27 07:35:53;;;;;;;5.90;2.10;;;;;0.20;93887.00;;;;7405653;19;20631;-79
2023/03/27 07:38:21;;;;;;;12.63;2.20;;;;;-0.30;93894.00;;;;7405038;19;20140;-80
2023/03/27 07:41:18;;;;;;;13.70;2.40;;;;;0.40;93882.00;;;;7401394;19;20193;-80
2023/03/27 07:43:52;;;;;;;11.07;2.03;;;;;0.50;93899.00;;;;7404123;19;20599;-80
2023/03/27 07:46:33;;;;;;;9.40;2.53;;;;;0.50;93897.00;;;;7404658;19;20506;-81
2023/03/27 07:49:00;;;;;;;9.60;2.07;;;;;1.00;93904.00;;;;7403289;19;20491;-80
2023/03/27 07:51:34;;;;;;;8.33;1.97;;;;;0.60;93907.00;;;;7403943;19;20616;-81
2023/03/27 07:54:12;;;;;;;9.50;2.20;;;;;0.60;93925.00;;;;7402764;19;20457;-82
2023/03/27 07:56:40;;;;;;;8.10;1.93;;;;;-0.30;93925.00;;;;7403409;19;20129;-80
2023/03/27 07:59:19;;;;;;;14.57;2.33;;;;;0.20;93945.00;;;;7403789;19;20133;-82
2023/03/27 08:01:49;;;;;;;11.17;2.27;;;;;-0.30;93952.00;;;;7403147;19;20148;-81
2023/03/27 08:04:29;;;;;;;6.07;1.77;;;;;0.00;93938.00;;;;7401137;19;20168;-81
2023/03/27 08:06:57;;;;;;;8.43;2.13;;;;;0.10;93956.00;;;;7403317;19;20614;-81
2023/03/27 08:09:31;;;;;;;6.30;1.80;;;;;0.50;93954.00;;;;7403078;19;20172;-82
2023/03/27 08:11:58;;;;;;;9.70;1.70;;;;;1.10;93963.00;;;;7406002;19;20603;-81
2023/03/27 08:14:32;;;;;;;4.93;1.90;;;;;0.90;93970.00;;;;7405092;19;20136;-82
2023/03/27 08:17:07;;;;;;;10.10;2.77;;;;;1.00;93959.00;;;;7404241;19;20141;-82
2023/03/27 08:19:45;;;;;;;8.00;2.30;;;;;1.50;93966.00;;;;7403215;19;20144;-80
2023/03/27 08:22:12;;;;;;;10.50;2.53;;;;;2.00;93960.00;;;;7402842;19;20468;-80
2023/03/27 08:24:48;;;;;;;9.80;2.37;;;;;1.70;93959.00;;;;7403924;19;20140;-80
2023/03/27 08:27:22;;;;;;;7.00;1.60;;;;;1.50;93969.00;;;;7404873;19;20136;-81
2023/03/27 08:29:57;;;;;;;7.63;1.97;;;;;2.10;93970.00;;;;7400220;19;20148;-81
2023/03/27 08:32:25;;;;;;;7.63;1.73;;;;;2.10;93978.00;;;;7402327;19;20647;-81
2023/03/27 08:35:00;;;;;;;9.27;1.93;;;;;2.10;93974.00;;;;7402205;19;20148;-81
2023/03/27 08:37:27;;;;;;;8.60;1.90;;;;;1.80;93993.00;;;;7404259;19;20128;-82
2023/03/27 08:40:07;;;;;;;7.20;1.67;;;;;2.30;93979.00;;;;7402566;19;20148;-83
2023/03/27 08:42:38;;;;;;;6.13;1.70;;;;;2.00;93994.00;;;;7402240;19;20611;-80
2023/03/27 08:45:40;;;;;;;7.27;1.63;;;;;2.80;93986.00;;;;7402808;19;20470;-80
2023/03/27 08:48:29;;;;;;;3.37;1.40;;;;;3.30;93990.00;;;;7403669;19;20145;-80
2023/03/27 08:51:11;;;;;;;9.43;1.83;;;;;2.10;93999.00;;;;7402514;19;20208;-80
2023/03/27 08:54:03;;;;;;;6.10;1.23;;;;;1.90;94007.00;;;;7401541;19;20132;-81
2023/03/27 08:56:39;;;;;;;4.00;1.43;;;;;1.80;94017.00;;;;7401675;19;20146;-81
2023/03/27 08:59:54;;;;;;;8.30;2.10;;;;;3.40;93991.00;;;;7403390;19;20141;-80
2023/03/27 09:02:49;;;;;;;4.37;1.50;;;;;3.30;94009.00;;;;7399586;19;20189;-81
2023/03/27 09:05:47;;;;;;;7.73;1.87;;;;;4.50;94029.00;;;;7400911;19;20151;-81
2023/03/27 09:08:39;;;;;;;5.70;1.70;;;;;4.00;94025.00;;;;7402294;19;20141;-80
2023/03/27 09:11:39;;;;;;;6.73;1.97;;;;;4.00;94028.00;;;;7401144;19;20145;-80
2023/03/27 09:14:39;;;;;;;5.33;1.60;;;;;3.80;94023.00;;;;7399437;19;20152;-80
2023/03/27 09:17:22;;;;;;;6.07;1.40;;;;;4.30;94019.00;;;;7401897;19;20141;-80
2023/03/27 09:20:19;;;;;;;6.10;1.70;;;;;4.00;94029.00;;;;7404812;19;20141;-80
2023/03/27 09:23:11;;;;;;;7.77;2.10;;;;;5.30;94039.00;;;;7404852;19;20165;-81
2023/03/27 09:25:55;;;;;;;5.67;1.60;;;;;4.00;94030.00;;;;7407838;19;20150;-81
2023/03/27 09:28:54;;;;;;;7.07;1.30;;;;;4.30;94037.00;;;;7410286;19;20151;-81
2023/03/27 09:31:31;;;;;;;4.93;1.83;;;;;4.20;94047.00;;;;7409946;19;20485;-81
2023/03/27 09:34:14;;;;;;;6.20;2.03;;;;;4.60;94045.00;;;;7408046;19;20612;-80
2023/03/27 09:36:48;;;;;;;3.93;1.40;;;;;4.10;94045.00;;;;7405078;19;20148;-81
2023/03/27 09:39:28;;;;;;;5.50;1.60;;;;;4.70;94037.00;;;;7401336;19;20144;-80
2023/03/27 09:42:27;;;;;;;6.93;1.50;;;;;5.60;94033.00;;;;7400316;19;20133;-80
2023/03/27 09:45:05;;;;;;;6.77;1.87;;;;;6.20;94028.00;;;;7400344;19;20132;-80
2023/03/27 09:47:48;;;;;;;11.13;1.70;;;;;7.40;94045.00;;;;7400112;19;20140;-80
2023/03/27 09:50:43;;;;;;;6.83;1.87;;;;;6.10;94042.00;;;;7401204;19;20166;-79
2023/03/27 09:53:22;;;;;;;4.50;1.50;;;;;6.10;94069.00;;;;7399549;19;20207;-79
2023/03/27 09:56:00;;;;;;;5.37;1.50;;;;;4.50;94087.00;;;;7398176;19;20157;-80
2023/03/27 09:58:39;;;;;;;6.77;1.57;;;;;4.70;94066.00;;;;7399190;19;20144;-80
2023/03/27 10:01:26;;;;;;;3.87;1.30;;;;;5.10;94061.00;;;;7398135;19;20157;-80
2023/03/27 10:04:15;;;;;;;3.03;1.00;;;;;7.60;94066.00;;;;7398823;19;20152;-80
2023/03/27 10:07:00;;;;;;;4.33;1.23;;;;;8.00;94087.00;;;;7399912;19;20153;-80
2023/03/27 10:09:37;;;;;;;4.27;1.30;;;;;6.70;94064.00;;;;7399309;19;20137;-80
2023/03/27 10:12:19;;;;;;;4.83;1.40;;;;;8.00;94083.00;;;;7398937;19;20529;-80
2023/03/27 10:14:53;;;;;;;3.33;1.43;;;;;8.10;94081.00;;;;7400773;19;20137;-80
2023/03/27 10:17:36;;;;;;;5.57;1.50;;;;;5.60;94128.00;;;;7398899;19;20144;-79
2023/03/27 10:20:17;;;;;;;6.20;1.60;;;;;4.20;94095.00;;;;7399258;19;20552;-79
2023/03/27 10:23:25;;;;;;;5.97;1.77;;;;;4.20;94095.00;;;;7400545;19;20132;-78
2023/03/27 10:26:00;;;;;;;6.10;1.53;;;;;6.80;94099.00;;;;7397511;19;20148;-78
2023/03/27 10:28:33;;;;;;;6.80;1.50;;;;;8.60;94115.00;;;;7398164;19;20133;-80
2023/03/27 10:31:26;;;;;;;6.97;1.93;;;;;7.40;94087.00;;;;7400021;19;20156;-81
2023/03/27 10:33:56;;;;;;;4.77;1.70;;;;;7.60;94089.00;;;;7398433;19;20152;-80
2023/03/27 10:36:36;;;;;;;3.55;1.30;;;;;7.20;94129.00;;;;7396710;19;20624;-79
2023/03/27 10:39:13;;;;;;;2.07;1.10;;;;;5.60;94135.00;;;;7398184;19;20488;-80
2023/03/27 10:41:48;;;;;;;3.60;1.27;;;;;4.50;94141.00;;;;7397106;19;20124;-78
2023/03/27 10:44:27;;;;;;;7.87;1.50;;;;;3.40;94153.00;;;;7398295;19;20494;-79
2023/03/27 10:47:01;;;;;;;6.43;1.67;;;;;3.60;94147.00;;;;7398291;19;20141;-79
2023/03/27 10:49:54;;;;;;;5.60;1.60;;;;;4.40;94116.00;;;;7399121;19;20133;-79
2023/03/27 10:52:44;;;;;;;3.20;1.37;;;;;6.80;94113.00;;;;7396457;19;20152;-79
2023/03/27 10:55:44;;;;;;;5.90;1.73;;;;;8.30;94104.00;;;;7397845;19;20133;-79
2023/03/27 10:58:37;;;;;;;4.93;1.30;;;;;8.80;94097.00;;;;7397730;19;20510;-79
2023/03/27 11:01:34;;;;;;;5.50;1.38;;;;;8.70;94091.00;;;;7397528;19;20133;-79
2023/03/27 11:04:29;;;;;;;10.68;2.03;;;;;9.20;94134.00;;;;7396466;19;20171;-79
2023/03/27 11:07:05;;;;;;;6.95;1.52;;;;;6.10;94143.00;;;;7396930;19;20148;-76
2023/03/27 11:09:43;;;;;;;3.95;1.35;;;;;5.30;94148.00;;;;7397195;19;20176;-77
2023/03/27 11:12:20;;;;;;;4.55;1.33;;;;;4.30;94151.00;;;;7397283;19;20134;-77
2023/03/27 11:15:08;;;;;;;7.03;1.50;;;;;4.50;94165.00;;;;7397463;19;20148;-78
2023/03/27 11:17:58;;;;;;;5.07;1.40;;;;;5.00;94157.00;;;;7396879;19;20631;-78
2023/03/27 11:20:50;;;;;;;3.60;1.00;;;;;5.20;94170.00;;;;7397343;19;20149;-77
2023/03/27 11:23:41;;;;;;;3.90;1.60;;;;;4.40;94161.00;;;;7396885;19;20474;-78
2023/03/27 11:26:14;;;;;;;5.80;1.30;;;;;4.90;94168.00;;;;7396315;19;20464;-77
2023/03/27 11:28:51;;;;;;;4.53;1.40;;;;;5.70;94135.00;;;;7397043;19;20164;-78
2023/03/27 11:31:48;;;;;;;4.73;1.17;;;;;7.30;94146.00;;;;7396484;19;20504;-77
2023/03/27 11:34:39;;;;;;;7.13;1.67;;;;;7.60;94136.00;;;;7397862;19;20137;-78
2023/03/27 11:37:24;;;;;;;4.60;1.25;;;;;7.90;94144.00;;;;7396026;19;20595;-78
2023/03/27 11:40:12;;;;;;;4.78;1.35;;;;;7.10;94138.00;;;;7396010;19;20157;-77
2023/03/27 11:42:43;;;;;;;3.92;1.10;;;;;9.80;94138.00;;;;7398327;19;20612;-77
2023/03/27 11:45:26;;;;;;;3.50;1.15;;;;;9.10;94144.00;;;;7397894;19;20121;-78
2023/03/27 11:48:08;;;;;;;4.03;1.15;;;;;9.10;94139.00;;;;7396474;19;20153;-79
2023/03/27 11:50:58;;;;;;;3.90;1.50;;;;;10.10;94133.00;;;;7396418;19;20156;-78
2023/03/27 11:53:58;;;;;;;2.90;1.10;;;;;10.00;94151.00;;;;7397151;19;20137;-78
2023/03/27 11:56:44;;;;;;;6.70;1.35;;;;;7.70;94168.00;;;;7394744;19;20486;-78
2023/03/27 11:59:52;;;;;;;4.95;1.30;;;;;7.00;94189.00;;;;7397369;19;20150;-78
2023/03/27 12:02:44;;;;;;;3.38;1.17;;;;;5.00;94195.00;;;;7393499;19;20774;-77
2023/03/27 12:05:56;;;;;;;7.22;1.30;;;;;4.40;94197.00;;;;7400019;19;20149;-78
2023/03/27 12:08:51;;;;;;;2.70;1.20;;;;;3.70;94215.00;;;;7404553;19;20169;-77
2023/03/27 12:11:35;;;;;;;6.37;1.30;;;;;3.50;94218.00;;;;7404551;19;20145;-77
2023/03/27 12:14:27;;;;;;;4.73;0.87;;;;;3.30;94224.00;;;;7403870;19;20172;-77
2023/03/27 12:17:23;;;;;;;4.77;1.30;;;;;3.20;94229.00;;;;7400609;19;20156;-77
2023/03/27 12:20:08;;;;;;;5.67;1.03;;;;;2.70;94238.00;;;;7403369;19;20137;-76
2023/03/27 12:23:03;;;;;;;4.13;1.17;;;3.50;99.90;2.90;94242.00;;;;7402571;19;20137;-76
2023/03/27 12:26:06;;;;;;;4.63;1.43;;;3.10;31.20;2.50;94196.00;;;;7400731;19;20196;-75
2023/03/27 12:29:17;;;;;;;4.63;1.30;;;3.00;22.60;3.40;94240.00;;;;7401741;19;20483;-75
2023/03/27 12:32:24;;;;;;;4.70;1.20;;;2.90;78.10;4.20;94233.00;;;;7403267;19;20136;-77
2023/03/27 12:35:06;;;;;;;2.93;1.70;;;3.30;69.60;4.50;94214.00;;;;7401987;19;20145;-77
2023/03/27 12:38:00;;;;;;;2.40;0.77;;;3.60;39.60;5.50;94216.00;;;;7404045;19;20588;-77
2023/03/27 12:40:39;;;;;;;7.97;1.27;;;4.20;1.00;6.90;94198.00;;;;7402473;19;20141;-76
2023/03/27 12:43:28;;;;;;;5.03;1.27;;;4.50;1.00;6.20;94149.00;;;;7402350;19;20152;-76
2023/03/27 12:46:22;;;;;;;5.93;1.00;;;5.40;1.00;6.70;94205.00;;;;7403788;19;20630;-76
2023/03/27 12:49:22;;;;;;;4.73;1.23;;;6.50;1.00;7.70;94203.00;;;;7403711;19;20460;-76
2023/03/27 12:52:01;;;;;;;8.00;1.20;;;7.20;1.00;7.10;94169.00;;;;7401387;19;20200;-77
2023/03/27 12:54:37;;;;;;;2.90;1.03;;;7.40;1.00;6.00;94204.00;;;;7400998;19;20152;-76
2023/03/27 12:57:17;;;;;;;4.83;1.37;;;7.00;1.00;6.10;94165.00;;;;7400656;19;20622;-76
2023/03/27 12:59:58;;;;;;;2.47;1.20;;;6.40;1.00;7.80;94210.00;;;;7403128;19;20143;-76
2023/03/27 13:02:35;;;;;;;5.32;1.35;;;7.10;1.00;7.70;94209.00;;;;7401980;19;20144;-76
2023/03/27 13:05:35;;;;;;;2.83;1.10;;;7.20;1.00;6.30;94198.00;;;;7398778;19;20156;-76
2023/03/27 13:08:42;;;;;;;4.37;1.30;;;7.10;1.00;6.20;94165.00;;;;7401129;19;20141;-75
2023/03/27 13:11:48;;;;;;;7.60;1.20;;;7.00;1.00;6.30;94159.00;;;;7400923;19;20133;-75
2023/03/27 13:15:07;;;;;;;3.07;1.33;;;6.30;1.00;5.70;94214.00;;;;7400756;19;20144;-75
2023/03/27 13:18:02;;;;;;;9.80;1.50;;;5.70;1.00;5.10;94222.00;;;;7397842;19;20129;-75